Terminal Aerodrome Forecast
Issued by NWS Hastings, NE

Home | Current Version | Previous Version | Text Only | Print | Product List | Glossary On
Versions: 1 2 3 4 5 6 7 8 9 10 11 12
000
FTUS45 KGID 272334
TAFEAR
TAF
KEAR 272334Z 2800/2824 16011KT P6SM SCT200
     FM280600 16009KT 4SM BR SCT025 BKN080 WS010/25035KT
     FM281000 25009KT P6SM FEW025 SCT150 WS010/25035KT
     FM281200 32009KT P6SM BKN100
      AMD LTD TO CLD VIS AND WIND=

USA.gov is the U.S. government's official web portal to all federal, state and local government web resources and services.